createdAt,value
2023-04-16T00:01:36.592Z,4.28
2023-04-16T00:04:12.173Z,5.08
2023-04-16T00:06:45.336Z,5.40
2023-04-16T00:09:18.862Z,5.47
2023-04-16T00:11:52.684Z,4.10
2023-04-16T00:14:26.258Z,2.92
2023-04-16T00:16:59.943Z,5.15
2023-04-16T00:19:33.621Z,4.85
2023-04-16T00:22:06.786Z,6.03
2023-04-16T00:24:40.270Z,5.62
2023-04-16T00:27:13.870Z,5.10
2023-04-16T00:29:47.747Z,5.78
2023-04-16T00:32:21.421Z,5.33
2023-04-16T00:34:55.144Z,5.25
2023-04-16T00:37:28.981Z,5.78
2023-04-16T00:40:02.350Z,5.83
2023-04-16T00:42:37.214Z,5.42
2023-04-16T00:45:13.322Z,4.22
2023-04-16T00:47:47.163Z,4.92
2023-04-16T00:50:20.598Z,3.27
2023-04-16T00:52:54.348Z,3.55
2023-04-16T00:55:27.775Z,3.12
2023-04-16T00:58:01.339Z,5.05
2023-04-16T01:00:34.937Z,4.80
2023-04-16T01:03:08.566Z,4.78
2023-04-16T01:05:42.397Z,4.67
2023-04-16T01:08:20.593Z,4.17
2023-04-16T01:10:54.019Z,3.42
2023-04-16T01:13:27.706Z,4.17
2023-04-16T01:16:01.401Z,5.45
2023-04-16T01:18:35.718Z,4.85
2023-04-16T01:21:09.511Z,5.28
2023-04-16T01:23:42.945Z,4.47
2023-04-16T01:26:16.445Z,5.37
2023-04-16T01:28:49.636Z,4.28
2023-04-16T01:31:23.226Z,4.40
2023-04-16T01:34:04.284Z,6.22
2023-04-16T01:36:41.116Z,5.05
2023-04-16T01:39:16.607Z,4.95
2023-04-16T01:41:50.411Z,4.83
2023-04-16T01:44:24.041Z,5.55
2023-04-16T01:46:57.832Z,5.80
2023-04-16T01:49:32.386Z,5.37
2023-04-16T01:52:07.994Z,5.35
2023-04-16T01:54:41.619Z,4.90
2023-04-16T01:57:15.544Z,5.05
2023-04-16T01:59:49.170Z,4.92
2023-04-16T02:02:24.734Z,6.37
2023-04-16T02:04:58.972Z,4.85
2023-04-16T02:07:32.632Z,6.15
2023-04-16T02:10:07.735Z,4.47
2023-04-16T02:12:42.560Z,4.92
2023-04-16T02:15:16.764Z,6.12
2023-04-16T02:17:53.748Z,5.15
2023-04-16T02:20:29.166Z,6.00
2023-04-16T02:23:04.120Z,5.55
2023-04-16T02:25:42.120Z,6.83
2023-04-16T02:28:18.001Z,6.58
2023-04-16T02:30:52.328Z,6.65
2023-04-16T02:33:26.956Z,4.78
2023-04-16T02:36:02.437Z,6.90
2023-04-16T02:38:37.678Z,6.90
2023-04-16T02:41:11.666Z,5.00
2023-04-16T02:43:45.125Z,4.75
2023-04-16T02:46:18.672Z,5.37
2023-04-16T02:48:52.275Z,7.17
2023-04-16T02:51:26.263Z,5.60
2023-04-16T02:53:59.886Z,6.15
2023-04-16T02:56:33.139Z,4.42
2023-04-16T02:59:07.025Z,5.10
2023-04-16T03:01:40.570Z,4.95
2023-04-16T03:04:14.412Z,6.33
2023-04-16T03:06:47.622Z,5.15
2023-04-16T03:09:21.205Z,5.60
2023-04-16T03:11:54.670Z,4.17
2023-04-16T03:14:28.495Z,4.92
2023-04-16T03:17:02.249Z,5.50
2023-04-16T03:19:36.033Z,4.08
2023-04-16T03:22:09.735Z,5.50
2023-04-16T03:24:43.330Z,4.47
2023-04-16T03:27:16.958Z,5.55
2023-04-16T03:29:51.028Z,4.80
2023-04-16T03:32:24.485Z,5.30
2023-04-16T03:34:57.940Z,4.65
2023-04-16T03:37:32.123Z,5.33
2023-04-16T03:40:07.198Z,4.30
2023-04-16T03:42:41.233Z,5.30
2023-04-16T03:45:15.378Z,4.67
2023-04-16T03:47:53.642Z,6.30
2023-04-16T03:50:28.858Z,5.08
2023-04-16T03:53:02.551Z,4.55
2023-04-16T03:55:36.762Z,5.58
2023-04-16T03:58:10.748Z,5.05
2023-04-16T04:00:45.533Z,5.40
2023-04-16T04:03:20.896Z,6.17
2023-04-16T04:05:55.612Z,5.62
2023-04-16T04:08:31.001Z,5.45
2023-04-16T04:11:04.361Z,5.35
2023-04-16T04:13:38.299Z,6.67
2023-04-16T04:16:11.756Z,5.97
2023-04-16T04:18:48.579Z,6.10
2023-04-16T04:21:23.776Z,6.47
2023-04-16T04:23:57.006Z,5.95
2023-04-16T04:26:30.793Z,5.80
2023-04-16T04:29:04.324Z,5.62
2023-04-16T04:31:37.850Z,6.10
2023-04-16T04:34:11.595Z,4.95
2023-04-16T04:36:44.984Z,5.67
2023-04-16T04:39:20.577Z,5.72
2023-04-16T04:41:54.375Z,6.55
2023-04-16T04:44:29.626Z,5.30
2023-04-16T04:47:03.562Z,5.12
2023-04-16T04:49:36.922Z,5.00
2023-04-16T04:52:11.676Z,4.85
2023-04-16T04:54:45.289Z,6.15
2023-04-16T04:57:19.065Z,5.45
2023-04-16T04:59:52.799Z,5.35
2023-04-16T05:02:26.567Z,4.70
2023-04-16T05:05:00.138Z,5.03
2023-04-16T05:07:35.001Z,5.80
2023-04-16T05:10:10.938Z,5.30
2023-04-16T05:12:44.802Z,5.80
2023-04-16T05:15:19.013Z,6.47
2023-04-16T05:17:52.552Z,5.75
2023-04-16T05:20:25.759Z,5.03
2023-04-16T05:22:59.500Z,5.58
2023-04-16T05:25:33.075Z,5.78
2023-04-16T05:28:07.120Z,6.00
2023-04-16T05:30:40.501Z,4.95
2023-04-16T05:33:14.253Z,4.87
2023-04-16T05:35:47.958Z,5.80
2023-04-16T05:38:21.505Z,5.50
2023-04-16T05:40:55.414Z,4.80
2023-04-16T05:43:29.071Z,6.10
2023-04-16T05:46:02.738Z,5.17
2023-04-16T05:48:36.483Z,5.97
2023-04-16T05:51:10.362Z,5.40
2023-04-16T05:53:44.164Z,5.12
2023-04-16T05:56:17.798Z,5.00
2023-04-16T05:58:51.305Z,4.53
2023-04-16T06:01:25.765Z,5.37
2023-04-16T06:03:59.473Z,5.42
2023-04-16T06:06:33.159Z,4.95
2023-04-16T06:09:06.690Z,5.05
2023-04-16T06:11:40.169Z,4.83
2023-04-16T06:14:13.945Z,5.65
2023-04-16T06:16:47.387Z,5.95
2023-04-16T06:19:21.587Z,5.35
2023-04-16T06:21:56.409Z,4.05
2023-04-16T06:24:29.978Z,5.72
2023-04-16T06:27:04.039Z,4.97
2023-04-16T06:29:41.616Z,4.53
2023-04-16T06:32:14.268Z,4.12
2023-04-16T06:34:49.300Z,4.45
2023-04-16T06:37:22.747Z,4.85
2023-04-16T06:39:56.400Z,4.35
2023-04-16T06:42:29.890Z,4.75
2023-04-16T06:45:03.207Z,4.75
2023-04-16T06:47:37.085Z,6.17
2023-04-16T06:50:12.609Z,3.60
2023-04-16T06:52:46.352Z,4.78
2023-04-16T06:55:20.584Z,4.85
2023-04-16T06:57:53.946Z,3.83
2023-04-16T07:00:27.347Z,5.37
2023-04-16T07:03:02.591Z,4.67
2023-04-16T07:05:36.225Z,4.45
2023-04-16T07:10:54.003Z,4.33
2023-04-16T07:13:27.869Z,2.70
2023-04-16T07:16:02.714Z,3.15
2023-04-16T07:18:36.618Z,2.85
2023-04-16T07:21:10.264Z,4.00
2023-04-16T07:23:44.803Z,4.75
2023-04-16T07:26:18.426Z,4.85
2023-04-16T07:28:52.255Z,4.28
2023-04-16T07:31:25.585Z,3.90
2023-04-16T07:33:59.168Z,3.65
2023-04-16T07:36:32.562Z,3.87
2023-04-16T07:39:06.570Z,3.20
2023-04-16T07:41:41.277Z,3.47
2023-04-16T07:44:16.516Z,3.98
2023-04-16T07:46:50.384Z,3.70
2023-04-16T07:49:23.962Z,3.92
2023-04-16T07:51:59.358Z,4.03
2023-04-16T07:54:36.002Z,3.90
2023-04-16T07:57:09.669Z,2.75
2023-04-16T07:59:43.079Z,2.75
2023-04-16T08:02:17.806Z,3.20
2023-04-16T08:04:51.304Z,3.92
2023-04-16T08:07:25.041Z,3.80
2023-04-16T08:09:58.727Z,3.70
2023-04-16T08:12:32.493Z,3.37
2023-04-16T08:15:07.529Z,3.25
2023-04-16T08:17:43.528Z,3.37
2023-04-16T08:20:19.119Z,3.00
2023-04-16T08:22:52.039Z,3.47
2023-04-16T08:25:26.015Z,3.90
2023-04-16T08:27:59.624Z,3.75
2023-04-16T08:30:33.432Z,3.37
2023-04-16T08:33:14.003Z,4.60
2023-04-16T08:35:53.653Z,4.12
2023-04-16T08:38:31.174Z,2.72
2023-04-16T08:41:09.145Z,4.08
2023-04-16T08:43:45.942Z,3.45
2023-04-16T08:46:21.382Z,4.35
2023-04-16T08:48:57.108Z,3.72
2023-04-16T08:51:33.343Z,3.65
2023-04-16T08:54:09.098Z,4.20
2023-04-16T08:56:43.996Z,4.58
2023-04-16T08:59:18.142Z,4.45
2023-04-16T09:02:00.801Z,3.67
2023-04-16T09:04:36.130Z,3.47
2023-04-16T09:07:11.428Z,4.42
2023-04-16T09:09:47.270Z,4.28
2023-04-16T09:12:20.865Z,3.95
2023-04-16T09:14:59.884Z,3.40
2023-04-16T09:17:36.412Z,3.35
2023-04-16T09:20:12.738Z,3.10
2023-04-16T09:22:46.635Z,4.10
2023-04-16T09:25:21.954Z,3.20
2023-04-16T09:27:55.764Z,3.10
2023-04-16T09:30:30.871Z,3.92
2023-04-16T09:33:20.482Z,4.08
2023-04-16T09:35:57.640Z,3.80
2023-04-16T09:38:48.521Z,3.07
2023-04-16T09:41:23.721Z,3.67
2023-04-16T09:44:04.854Z,3.08
2023-04-16T09:46:43.354Z,4.00
2023-04-16T09:49:44.396Z,3.50
2023-04-16T09:52:54.474Z,3.52
2023-04-16T09:55:34.038Z,4.10
2023-04-16T09:58:07.763Z,4.58
2023-04-16T10:00:43.687Z,3.50
2023-04-16T10:03:18.139Z,3.05
2023-04-16T10:05:54.213Z,6.65
2023-04-16T10:08:30.673Z,3.80
2023-04-16T10:11:05.099Z,3.85
2023-04-16T10:13:38.542Z,3.92
2023-04-16T10:16:12.740Z,3.67
2023-04-16T10:18:47.729Z,4.17
2023-04-16T10:21:27.171Z,3.77
2023-04-16T10:26:44.561Z,3.60
2023-04-16T10:32:01.332Z,4.05
2023-04-16T10:37:18.810Z,2.92
2023-04-16T10:39:54.011Z,3.75
2023-04-16T10:42:28.513Z,4.35
2023-04-16T10:45:04.394Z,7.10
2023-04-16T10:50:24.415Z,4.75
2023-04-16T10:53:23.871Z,4.03
2023-04-16T10:56:13.868Z,3.60
2023-04-16T10:58:47.341Z,4.35
2023-04-16T11:01:22.164Z,3.98
2023-04-16T11:03:55.701Z,3.45
2023-04-16T11:06:30.033Z,3.65
2023-04-16T11:09:05.918Z,3.67
2023-04-16T11:11:41.332Z,3.52
2023-04-16T11:14:15.578Z,4.00
2023-04-16T11:16:49.149Z,3.52
2023-04-16T11:19:22.636Z,3.83
2023-04-16T11:21:56.329Z,3.95
2023-04-16T11:27:17.064Z,4.60
2023-04-16T11:29:59.039Z,4.83
2023-04-16T11:32:35.815Z,4.40
2023-04-16T11:35:16.804Z,4.37
2023-04-16T11:37:50.016Z,4.20
2023-04-16T11:40:23.709Z,4.75
2023-04-16T11:42:58.053Z,3.50
2023-04-16T11:45:32.427Z,3.40
2023-04-16T11:48:09.910Z,4.05
2023-04-16T11:53:24.285Z,5.00
2023-04-16T11:55:57.891Z,4.50
2023-04-16T11:58:31.427Z,3.35
2023-04-16T12:01:05.858Z,4.28
2023-04-16T12:03:46.028Z,4.90
2023-04-16T12:06:19.870Z,4.60
2023-04-16T12:08:53.883Z,4.53
2023-04-16T12:11:41.860Z,4.60
2023-04-16T12:14:18.044Z,4.40
2023-04-16T12:16:55.646Z,4.33
2023-04-16T12:19:29.269Z,4.30
2023-04-16T12:22:03.876Z,5.10
2023-04-16T12:24:38.389Z,4.47
2023-04-16T12:27:12.028Z,4.55
2023-04-16T12:29:45.832Z,4.78
2023-04-16T12:32:25.296Z,4.20
2023-04-16T12:34:58.882Z,4.58
2023-04-16T12:37:33.177Z,4.95
2023-04-16T12:40:08.881Z,4.15
2023-04-16T12:42:44.539Z,4.67
2023-04-16T12:45:18.162Z,5.25
2023-04-16T12:53:32.662Z,4.17
2023-04-16T12:56:14.644Z,4.90
2023-04-16T12:58:50.234Z,4.67
2023-04-16T13:01:24.611Z,6.08
2023-04-16T13:04:04.318Z,5.20
2023-04-16T13:06:41.954Z,5.33
2023-04-16T13:09:21.008Z,6.28
2023-04-16T13:11:55.475Z,5.58
2023-04-16T13:14:28.775Z,4.28
2023-04-16T13:17:02.286Z,4.97
2023-04-16T13:19:39.676Z,5.70
2023-04-16T13:22:13.102Z,4.30
2023-04-16T13:24:46.640Z,5.58
2023-04-16T13:27:20.555Z,4.62
2023-04-16T13:29:53.922Z,4.62
2023-04-16T13:32:27.559Z,3.15
2023-04-16T13:35:01.122Z,4.03
2023-04-16T13:37:36.127Z,5.00
2023-04-16T13:40:11.748Z,5.12
2023-04-16T13:42:46.787Z,4.50
2023-04-16T13:45:21.223Z,4.10
2023-04-16T13:47:56.407Z,3.20
2023-04-16T13:50:30.259Z,3.62
2023-04-16T13:53:03.658Z,4.10
2023-04-16T13:55:37.453Z,3.75
2023-04-16T13:58:14.745Z,3.40
2023-04-16T14:00:48.572Z,3.22
2023-04-16T14:03:22.420Z,3.45
2023-04-16T14:05:56.134Z,4.00
2023-04-16T14:08:30.627Z,3.17
2023-04-16T14:11:06.039Z,3.80
2023-04-16T14:13:42.964Z,4.08
2023-04-16T14:16:19.283Z,3.62
2023-04-16T14:18:54.418Z,4.60
2023-04-16T14:21:28.942Z,4.17
2023-04-16T14:24:02.849Z,3.75
2023-04-16T14:26:36.732Z,4.83
2023-04-16T14:29:11.650Z,3.77
2023-04-16T14:31:46.919Z,4.17
2023-04-16T14:34:21.393Z,4.47
2023-04-16T14:36:55.086Z,3.85
2023-04-16T14:39:29.215Z,3.87
2023-04-16T14:42:04.561Z,5.00
2023-04-16T14:44:38.935Z,3.47
2023-04-16T14:47:15.874Z,3.00
2023-04-16T14:49:49.977Z,2.50
2023-04-16T14:52:24.099Z,2.90
2023-04-16T14:55:00.414Z,3.10
2023-04-16T14:57:34.920Z,3.93
2023-04-16T15:00:12.128Z,3.62
2023-04-16T15:02:50.393Z,2.80
2023-04-16T15:08:12.691Z,3.58
2023-04-16T15:10:46.387Z,4.40
2023-04-16T15:13:20.246Z,4.22
2023-04-16T15:15:54.580Z,3.75
2023-04-16T15:18:29.355Z,4.20
2023-04-16T15:21:03.122Z,4.20
2023-04-16T15:23:36.901Z,4.25
2023-04-16T15:26:10.739Z,3.55
2023-04-16T15:28:44.125Z,3.30
2023-04-16T15:34:02.720Z,4.10
2023-04-16T15:36:36.723Z,4.37
2023-04-16T15:39:10.505Z,4.00
2023-04-16T15:41:59.339Z,4.58
2023-04-16T15:47:13.707Z,4.10
2023-04-16T15:52:29.489Z,3.75
2023-04-16T15:55:04.377Z,3.72
2023-04-16T15:57:38.015Z,3.67
2023-04-16T16:00:15.078Z,3.90
2023-04-16T16:02:49.752Z,4.20
2023-04-16T16:05:23.791Z,4.40
2023-04-16T16:07:58.634Z,4.45
2023-04-16T16:10:32.366Z,4.12
2023-04-16T16:13:08.258Z,4.30
2023-04-16T16:15:41.773Z,3.90
2023-04-16T16:18:15.683Z,4.67
2023-04-16T16:20:49.164Z,4.55
2023-04-16T16:23:22.847Z,4.42
2023-04-16T16:25:57.089Z,4.75
2023-04-16T16:28:31.138Z,4.58
2023-04-16T16:31:06.551Z,5.25
2023-04-16T16:33:40.719Z,5.65
2023-04-16T16:36:15.469Z,5.20
2023-04-16T16:38:48.730Z,5.90
2023-04-16T16:41:22.592Z,5.35
2023-04-16T16:43:56.567Z,6.08
2023-04-16T16:46:33.421Z,5.17
2023-04-16T16:49:08.547Z,4.95
2023-04-16T16:51:42.136Z,4.28
2023-04-16T16:54:15.799Z,4.90
2023-04-16T16:56:52.460Z,4.67
2023-04-16T16:59:26.646Z,4.55
2023-04-16T17:02:00.069Z,4.83
2023-04-16T17:04:33.401Z,4.92
2023-04-16T17:07:06.753Z,6.55
2023-04-16T17:09:42.928Z,4.62
2023-04-16T17:12:16.420Z,4.30
2023-04-16T17:14:53.212Z,4.95
2023-04-16T17:17:28.358Z,5.10
2023-04-16T17:20:03.477Z,5.35
2023-04-16T17:22:39.626Z,5.22
2023-04-16T17:25:13.994Z,5.33
2023-04-16T17:27:47.281Z,5.35
2023-04-16T17:30:26.171Z,5.80
2023-04-16T17:33:00.878Z,5.42
2023-04-16T17:35:34.807Z,5.05
2023-04-16T17:38:08.333Z,5.37
2023-04-16T17:40:42.143Z,5.95
2023-04-16T17:43:19.835Z,6.12
2023-04-16T17:45:53.259Z,5.37
2023-04-16T17:48:29.092Z,6.70
2023-04-16T17:51:04.026Z,5.45
2023-04-16T17:53:37.330Z,6.00
2023-04-16T17:56:10.749Z,5.67
2023-04-16T17:58:44.191Z,6.20
2023-04-16T18:01:18.213Z,6.17
2023-04-16T18:03:52.090Z,6.50
2023-04-16T18:06:26.531Z,7.15
2023-04-16T18:08:59.699Z,6.22
2023-04-16T18:11:32.871Z,6.30
2023-04-16T18:14:06.322Z,6.87
2023-04-16T18:16:39.529Z,6.72
2023-04-16T18:19:13.300Z,6.25
2023-04-16T18:21:46.985Z,6.25
2023-04-16T18:24:23.879Z,7.08
2023-04-16T18:26:57.613Z,7.72
2023-04-16T18:29:33.816Z,7.45
2023-04-16T18:32:06.530Z,7.33
2023-04-16T18:34:40.122Z,6.65
2023-04-16T18:37:15.268Z,6.53
2023-04-16T18:42:54.280Z,7.58
2023-04-16T18:45:28.476Z,8.15
2023-04-16T18:48:03.498Z,7.58
2023-04-16T18:50:36.648Z,7.35
2023-04-16T18:53:10.682Z,7.95
2023-04-16T18:55:44.047Z,7.30
2023-04-16T18:58:17.248Z,7.72
2023-04-16T19:00:52.536Z,7.22
2023-04-16T19:03:25.975Z,6.42
2023-04-16T19:05:59.155Z,7.42
2023-04-16T19:08:36.490Z,7.35
2023-04-16T19:11:11.651Z,5.83
2023-04-16T19:13:47.849Z,6.72
2023-04-16T19:16:20.990Z,6.15
2023-04-16T19:18:56.833Z,7.85
2023-04-16T19:21:30.084Z,7.92
2023-04-16T19:24:03.330Z,6.15
2023-04-16T19:26:41.461Z,7.08
2023-04-16T19:29:17.980Z,7.25
2023-04-16T19:31:51.441Z,6.37
2023-04-16T19:34:24.590Z,7.10
2023-04-16T19:36:58.170Z,7.62
2023-04-16T19:39:31.707Z,8.55
2023-04-16T19:42:05.313Z,8.43
2023-04-16T19:44:38.571Z,7.60
2023-04-16T19:47:11.898Z,7.15
2023-04-16T19:49:45.036Z,8.55
2023-04-16T19:52:18.131Z,6.95
2023-04-16T19:54:51.501Z,8.20
2023-04-16T19:57:24.876Z,10.05
2023-04-16T19:59:58.307Z,8.95
2023-04-16T20:02:33.022Z,7.60
2023-04-16T20:05:07.554Z,8.50
2023-04-16T20:07:40.953Z,8.38
2023-04-16T20:10:14.381Z,8.53
2023-04-16T20:12:47.710Z,8.15
2023-04-16T20:15:21.784Z,9.25
2023-04-16T20:17:56.468Z,8.53
2023-04-16T20:20:29.836Z,10.48
2023-04-16T20:23:03.051Z,9.28
2023-04-16T20:25:36.495Z,8.25
2023-04-16T20:28:09.838Z,8.30
2023-04-16T20:30:43.285Z,10.00
2023-04-16T20:33:16.523Z,9.08
2023-04-16T20:35:52.279Z,9.93
2023-04-16T20:38:25.630Z,10.05
2023-04-16T20:41:00.634Z,8.35
2023-04-16T20:43:36.914Z,11.00
2023-04-16T20:46:10.915Z,10.03
2023-04-16T20:48:44.223Z,9.90
2023-04-16T20:51:18.296Z,9.05
2023-04-16T20:53:52.288Z,9.35
2023-04-16T20:56:26.041Z,9.60
2023-04-16T20:58:59.502Z,10.00
2023-04-16T21:01:33.250Z,9.38
2023-04-16T21:04:07.316Z,10.08
2023-04-16T21:06:43.823Z,10.15
2023-04-16T21:09:17.679Z,9.50
2023-04-16T21:11:55.936Z,9.63
2023-04-16T21:14:31.195Z,9.23
2023-04-16T21:17:04.833Z,9.30
2023-04-16T21:19:38.493Z,9.20
2023-04-16T21:22:12.095Z,8.88
2023-04-16T21:24:45.683Z,9.63
2023-04-16T21:27:19.056Z,10.45
2023-04-16T21:29:52.935Z,9.88
2023-04-16T21:32:26.684Z,9.13
2023-04-16T21:35:00.432Z,9.43
2023-04-16T21:37:34.328Z,9.58
2023-04-16T21:40:09.489Z,9.18
2023-04-16T21:42:44.413Z,10.03
2023-04-16T21:45:18.178Z,10.38
2023-04-16T21:47:51.791Z,9.93
2023-04-16T21:50:27.251Z,10.60
2023-04-16T21:53:04.090Z,10.85
2023-04-16T21:55:37.984Z,10.35
2023-04-16T21:58:11.723Z,11.70
2023-04-16T22:00:45.491Z,10.58
2023-04-16T22:03:19.261Z,10.50
2023-04-16T22:05:53.218Z,9.58
2023-04-16T22:08:27.282Z,10.82
2023-04-16T22:11:01.587Z,10.70
2023-04-16T22:16:07.813Z,9.43
2023-04-16T22:18:42.038Z,10.45
2023-04-16T22:21:15.566Z,8.88
2023-04-16T22:23:49.354Z,9.10
2023-04-16T22:26:22.655Z,10.95
2023-04-16T22:28:56.501Z,9.15
2023-04-16T22:31:30.127Z,10.60
2023-04-16T22:34:03.811Z,9.45
2023-04-16T22:36:37.336Z,9.25
2023-04-16T22:39:10.792Z,9.70
2023-04-16T22:41:44.715Z,9.25
2023-04-16T22:44:18.231Z,8.63
2023-04-16T22:46:52.079Z,8.55
2023-04-16T22:49:26.452Z,10.48
2023-04-16T22:52:00.400Z,9.18
2023-04-16T22:54:34.293Z,9.85
2023-04-16T22:57:09.388Z,9.40
2023-04-16T22:59:43.163Z,9.40
2023-04-16T23:02:16.900Z,8.33
2023-04-16T23:04:50.530Z,9.05
2023-04-16T23:07:24.361Z,8.73
2023-04-16T23:09:57.841Z,8.65
2023-04-16T23:12:31.519Z,8.10
2023-04-16T23:15:06.634Z,8.78
2023-04-16T23:17:40.890Z,9.10
2023-04-16T23:20:15.767Z,9.03
2023-04-16T23:22:49.457Z,8.48
2023-04-16T23:25:23.778Z,7.17
2023-04-16T23:27:57.307Z,9.53
2023-04-16T23:30:31.224Z,8.00
2023-04-16T23:33:04.693Z,8.48
2023-04-16T23:35:38.208Z,7.83
2023-04-16T23:38:11.948Z,8.00
2023-04-16T23:40:45.794Z,8.43
2023-04-16T23:43:19.511Z,7.50
2023-04-16T23:45:53.384Z,8.23
2023-04-16T23:48:27.207Z,9.10
2023-04-16T23:51:00.985Z,9.50
2023-04-16T23:53:36.094Z,7.62
2023-04-16T23:56:11.529Z,9.35
2023-04-16T23:58:44.816Z,9.35
